sensor_id;sensor_type;location;lat;lon;timestamp;pressure;altitude;pressure_sealevel;temperature;humidity
58092;BME280;43896;48.178;11.578;2023-09-19T00:00:33;95565.78;;;19.38;60.77
58092;BME280;43896;48.178;11.578;2023-09-19T00:02:59;95570.91;;;19.39;60.50
58092;BME280;43896;48.178;11.578;2023-09-19T00:05:28;95566.00;;;19.36;60.64
58092;BME280;43896;48.178;11.578;2023-09-19T00:07:54;95565.75;;;19.44;60.78
58092;BME280;43896;48.178;11.578;2023-09-19T00:10:23;95564.25;;;19.48;60.51
58092;BME280;43896;48.178;11.578;2023-09-19T00:12:50;95567.94;;;19.47;60.17
58092;BME280;43896;48.178;11.578;2023-09-19T00:15:16;95568.56;;;19.49;60.29
58092;BME280;43896;48.178;11.578;2023-09-19T00:17:43;95567.50;;;19.51;60.32
58092;BME280;43896;48.178;11.578;2023-09-19T00:20:08;95564.41;;;19.54;59.81
58092;BME280;43896;48.178;11.578;2023-09-19T00:22:40;95566.25;;;19.53;60.18
58092;BME280;43896;48.178;11.578;2023-09-19T00:25:07;95565.06;;;19.49;60.83
58092;BME280;43896;48.178;11.578;2023-09-19T00:27:32;95570.28;;;19.19;61.51
58092;BME280;43896;48.178;11.578;2023-09-19T00:29:58;95578.28;;;18.93;62.91
58092;BME280;43896;48.178;11.578;2023-09-19T00:32:24;95574.59;;;18.95;62.51
58092;BME280;43896;48.178;11.578;2023-09-19T00:34:49;95570.75;;;19.09;61.98
58092;BME280;43896;48.178;11.578;2023-09-19T00:37:14;95581.63;;;19.33;60.95
58092;BME280;43896;48.178;11.578;2023-09-19T00:39:40;95578.44;;;19.42;60.42
58092;BME280;43896;48.178;11.578;2023-09-19T00:42:06;95580.53;;;19.40;60.54
58092;BME280;43896;48.178;11.578;2023-09-19T00:44:31;95578.50;;;19.36;60.78
58092;BME280;43896;48.178;11.578;2023-09-19T00:46:59;95583.25;;;19.34;61.29
58092;BME280;43896;48.178;11.578;2023-09-19T00:49:25;95588.63;;;19.27;61.32
58092;BME280;43896;48.178;11.578;2023-09-19T00:51:53;95583.41;;;19.39;60.40
58092;BME280;43896;48.178;11.578;2023-09-19T00:54:18;95587.66;;;19.46;60.24
58092;BME280;43896;48.178;11.578;2023-09-19T00:56:44;95590.13;;;19.48;60.20
58092;BME280;43896;48.178;11.578;2023-09-19T01:02:12;95600.72;;;19.55;59.90
58092;BME280;43896;48.178;11.578;2023-09-19T01:04:39;95601.22;;;19.45;60.33
58092;BME280;43896;48.178;11.578;2023-09-19T01:07:05;95609.59;;;19.48;60.64
58092;BME280;43896;48.178;11.578;2023-09-19T01:09:30;95605.75;;;19.44;61.34
58092;BME280;43896;48.178;11.578;2023-09-19T01:11:57;95608.63;;;19.43;61.61
58092;BME280;43896;48.178;11.578;2023-09-19T01:19:50;95614.75;;;19.43;61.38
58092;BME280;43896;48.178;11.578;2023-09-19T01:22:41;95623.78;;;19.42;61.49
58092;BME280;43896;48.178;11.578;2023-09-19T01:30:26;95627.28;;;19.43;61.08
58092;BME280;43896;48.178;11.578;2023-09-19T01:32:54;95631.19;;;19.40;61.39
58092;BME280;43896;48.178;11.578;2023-09-19T01:35:19;95639.03;;;19.35;61.58
58092;BME280;43896;48.178;11.578;2023-09-19T01:37:44;95641.09;;;19.33;61.65
58092;BME280;43896;48.178;11.578;2023-09-19T01:40:11;95636.00;;;19.32;61.78
58092;BME280;43896;48.178;11.578;2023-09-19T01:45:32;95635.63;;;19.28;62.13
58092;BME280;43896;48.178;11.578;2023-09-19T01:48:04;95642.81;;;19.27;62.24
58092;BME280;43896;48.178;11.578;2023-09-19T01:50:44;95642.44;;;19.24;62.31
58092;BME280;43896;48.178;11.578;2023-09-19T01:53:11;95645.91;;;18.92;63.42
58092;BME280;43896;48.178;11.578;2023-09-19T01:55:41;95652.75;;;19.14;62.46
58092;BME280;43896;48.178;11.578;2023-09-19T01:58:16;95644.94;;;19.19;62.29
58092;BME280;43896;48.178;11.578;2023-09-19T02:00:43;95638.72;;;19.25;62.34
58092;BME280;43896;48.178;11.578;2023-09-19T02:03:10;95646.31;;;19.21;62.37
58092;BME280;43896;48.178;11.578;2023-09-19T02:05:36;95645.69;;;19.26;62.17
58092;BME280;43896;48.178;11.578;2023-09-19T02:08:02;95644.63;;;19.27;61.96
58092;BME280;43896;48.178;11.578;2023-09-19T02:10:28;95640.34;;;19.26;62.14
58092;BME280;43896;48.178;11.578;2023-09-19T02:12:53;95645.69;;;19.26;61.98
58092;BME280;43896;48.178;11.578;2023-09-19T02:15:18;95642.59;;;19.29;61.57
58092;BME280;43896;48.178;11.578;2023-09-19T02:17:44;95642.59;;;19.29;61.40
58092;BME280;43896;48.178;11.578;2023-09-19T02:20:11;95639.94;;;19.29;61.75
58092;BME280;43896;48.178;11.578;2023-09-19T02:22:40;95639.09;;;19.28;61.55
58092;BME280;43896;48.178;11.578;2023-09-19T02:25:05;95648.94;;;19.28;61.35
58092;BME280;43896;48.178;11.578;2023-09-19T02:27:32;95640.72;;;19.29;61.32
58092;BME280;43896;48.178;11.578;2023-09-19T02:29:57;95635.41;;;19.29;61.37
58092;BME280;43896;48.178;11.578;2023-09-19T02:32:23;95639.94;;;19.29;61.07
58092;BME280;43896;48.178;11.578;2023-09-19T02:34:48;95647.53;;;19.25;61.19
58092;BME280;43896;48.178;11.578;2023-09-19T02:37:13;95642.69;;;18.84;62.36
58092;BME280;43896;48.178;11.578;2023-09-19T02:39:41;95649.53;;;19.05;62.04
58092;BME280;43896;48.178;11.578;2023-09-19T02:42:06;95643.91;;;19.13;61.66
58092;BME280;43896;48.178;11.578;2023-09-19T02:44:32;95651.50;;;19.16;61.66
58092;BME280;43896;48.178;11.578;2023-09-19T02:46:57;95654.97;;;19.17;61.58
58092;BME280;43896;48.178;11.578;2023-09-19T02:49:23;95653.34;;;19.16;61.90
58092;BME280;43896;48.178;11.578;2023-09-19T02:51:48;95649.88;;;19.15;61.76
58092;BME280;43896;48.178;11.578;2023-09-19T02:54:13;95652.28;;;19.17;61.82
58092;BME280;43896;48.178;11.578;2023-09-19T02:56:40;95646.16;;;19.16;61.77
58092;BME280;43896;48.178;11.578;2023-09-19T02:59:06;95653.56;;;19.14;62.16
58092;BME280;43896;48.178;11.578;2023-09-19T03:01:31;95662.44;;;19.01;62.50
58092;BME280;43896;48.178;11.578;2023-09-19T03:03:57;95654.44;;;19.01;62.35
58092;BME280;43896;48.178;11.578;2023-09-19T03:06:22;95655.69;;;19.05;62.12
58092;BME280;43896;48.178;11.578;2023-09-19T03:08:49;95653.00;;;19.05;62.42
58092;BME280;43896;48.178;11.578;2023-09-19T03:11:16;95654.41;;;19.08;62.06
58092;BME280;43896;48.178;11.578;2023-09-19T03:13:44;95640.28;;;19.07;61.96
58092;BME280;43896;48.178;11.578;2023-09-19T03:16:10;95647.25;;;19.08;61.95
58092;BME280;43896;48.178;11.578;2023-09-19T03:18:36;95647.25;;;19.08;61.87
58092;BME280;43896;48.178;11.578;2023-09-19T03:21:01;95654.25;;;19.03;62.30
58092;BME280;43896;48.178;11.578;2023-09-19T03:23:27;95659.38;;;19.04;62.31
58092;BME280;43896;48.178;11.578;2023-09-19T03:25:53;95658.22;;;18.93;62.87
58092;BME280;43896;48.178;11.578;2023-09-19T03:28:19;95656.53;;;18.99;62.38
58092;BME280;43896;48.178;11.578;2023-09-19T03:30:46;95659.78;;;19.01;62.34
58092;BME280;43896;48.178;11.578;2023-09-19T03:33:11;95659.41;;;18.98;62.18
58092;BME280;43896;48.178;11.578;2023-09-19T03:35:37;95661.16;;;18.72;63.03
58092;BME280;43896;48.178;11.578;2023-09-19T03:38:03;95665.53;;;18.60;63.46
58092;BME280;43896;48.178;11.578;2023-09-19T03:40:28;95667.94;;;18.74;63.08
58092;BME280;43896;48.178;11.578;2023-09-19T03:42:54;95661.53;;;18.82;62.76
58092;BME280;43896;48.178;11.578;2023-09-19T03:45:19;95664.59;;;18.86;62.54
58092;BME280;43896;48.178;11.578;2023-09-19T03:47:45;95676.31;;;18.78;62.71
58092;BME280;43896;48.178;11.578;2023-09-19T03:50:13;95666.97;;;18.62;62.63
58092;BME280;43896;48.178;11.578;2023-09-19T03:52:42;95677.25;;;18.59;63.26
58092;BME280;43896;48.178;11.578;2023-09-19T03:55:07;95674.66;;;18.77;62.66
58092;BME280;43896;48.178;11.578;2023-09-19T03:57:34;95680.16;;;18.89;62.29
58092;BME280;43896;48.178;11.578;2023-09-19T04:00:00;95670.34;;;18.89;62.16
58092;BME280;43896;48.178;11.578;2023-09-19T04:02:25;95667.13;;;18.74;62.83
58092;BME280;43896;48.178;11.578;2023-09-19T04:04:51;95669.50;;;18.89;62.41
58092;BME280;43896;48.178;11.578;2023-09-19T04:07:17;95667.72;;;18.83;62.70
58092;BME280;43896;48.178;11.578;2023-09-19T04:09:43;95672.69;;;18.66;62.84
58092;BME280;43896;48.178;11.578;2023-09-19T04:12:09;95684.91;;;18.87;63.04
58092;BME280;43896;48.178;11.578;2023-09-19T04:14:34;95673.09;;;18.63;63.35
58092;BME280;43896;48.178;11.578;2023-09-19T04:16:59;95682.25;;;18.73;63.09
58092;BME280;43896;48.178;11.578;2023-09-19T04:19:25;95681.44;;;18.80;62.96
58092;BME280;43896;48.178;11.578;2023-09-19T04:21:51;95688.03;;;18.70;63.15
58092;BME280;43896;48.178;11.578;2023-09-19T04:24:16;95686.75;;;18.80;62.68
58092;BME280;43896;48.178;11.578;2023-09-19T04:26:44;95688.22;;;18.76;62.39
58092;BME280;43896;48.178;11.578;2023-09-19T04:29:09;95686.97;;;18.78;62.44
58092;BME280;43896;48.178;11.578;2023-09-19T04:31:36;95691.28;;;18.79;62.75
58092;BME280;43896;48.178;11.578;2023-09-19T04:34:05;95696.81;;;18.78;62.39
58092;BME280;43896;48.178;11.578;2023-09-19T04:36:30;95691.88;;;18.88;62.89
58092;BME280;43896;48.178;11.578;2023-09-19T04:38:58;95708.28;;;18.85;63.17
58092;BME280;43896;48.178;11.578;2023-09-19T04:41:29;95704.50;;;18.99;65.52
58092;BME280;43896;48.178;11.578;2023-09-19T04:43:55;95709.16;;;19.10;64.25
58092;BME280;43896;48.178;11.578;2023-09-19T04:46:20;95710.91;;;19.23;62.09
58092;BME280;43896;48.178;11.578;2023-09-19T04:48:46;95713.78;;;19.22;62.77
58092;BME280;43896;48.178;11.578;2023-09-19T04:51:11;95716.63;;;19.27;61.77
58092;BME280;43896;48.178;11.578;2023-09-19T04:53:36;95732.38;;;19.35;61.23
58092;BME280;43896;48.178;11.578;2023-09-19T04:56:02;95722.25;;;19.19;61.72
58092;BME280;43896;48.178;11.578;2023-09-19T04:58:28;95727.41;;;19.14;62.16
58092;BME280;43896;48.178;11.578;2023-09-19T05:00:54;95732.63;;;19.27;61.64
58092;BME280;43896;48.178;11.578;2023-09-19T05:03:19;95730.63;;;19.22;61.03
58092;BME280;43896;48.178;11.578;2023-09-19T05:05:45;95739.47;;;19.16;61.44
58092;BME280;43896;48.178;11.578;2023-09-19T05:08:10;95742.16;;;19.09;61.32
58092;BME280;43896;48.178;11.578;2023-09-19T05:10:35;95745.88;;;19.08;61.56
58092;BME280;43896;48.178;11.578;2023-09-19T05:13:04;95727.69;;;18.99;61.70
58092;BME280;43896;48.178;11.578;2023-09-19T05:15:30;95757.56;;;19.07;61.17
58092;BME280;43896;48.178;11.578;2023-09-19T05:17:55;95752.84;;;19.03;61.48
58092;BME280;43896;48.178;11.578;2023-09-19T05:20:20;95757.84;;;18.92;62.39
58092;BME280;43896;48.178;11.578;2023-09-19T05:23:02;95769.75;;;18.90;62.12
58092;BME280;43896;48.178;11.578;2023-09-19T05:25:31;95774.28;;;18.83;62.16
58092;BME280;43896;48.178;11.578;2023-09-19T05:27:57;95777.31;;;18.93;61.99
58092;BME280;43896;48.178;11.578;2023-09-19T05:30:23;95772.97;;;18.99;61.59
58092;BME280;43896;48.178;11.578;2023-09-19T05:32:48;95774.47;;;18.88;62.05
58092;BME280;43896;48.178;11.578;2023-09-19T05:35:14;95774.84;;;18.98;61.51
58092;BME280;43896;48.178;11.578;2023-09-19T05:37:39;95773.00;;;18.92;61.59
58092;BME280;43896;48.178;11.578;2023-09-19T05:40:05;95772.38;;;18.97;61.32
58092;BME280;43896;48.178;11.578;2023-09-19T05:42:37;95782.44;;;18.95;61.58
58092;BME280;43896;48.178;11.578;2023-09-19T05:45:04;95774.28;;;18.76;62.26
58092;BME280;43896;48.178;11.578;2023-09-19T05:47:31;95781.44;;;18.82;61.94
58092;BME280;43896;48.178;11.578;2023-09-19T05:49:56;95782.47;;;18.88;61.73
58092;BME280;43896;48.178;11.578;2023-09-19T05:52:22;95790.00;;;18.91;61.86
58092;BME280;43896;48.178;11.578;2023-09-19T05:54:47;95792.88;;;18.96;61.55
58092;BME280;43896;48.178;11.578;2023-09-19T05:57:12;95792.47;;;18.92;61.47
58092;BME280;43896;48.178;11.578;2023-09-19T05:59:38;95792.72;;;18.78;62.36
58092;BME280;43896;48.178;11.578;2023-09-19T06:02:05;95804.38;;;18.97;61.88
58092;BME280;43896;48.178;11.578;2023-09-19T06:04:31;95793.03;;;19.01;61.18
58092;BME280;43896;48.178;11.578;2023-09-19T06:06:56;95793.41;;;19.11;60.58
58092;BME280;43896;48.178;11.578;2023-09-19T06:09:21;95800.13;;;19.27;60.38
58092;BME280;43896;48.178;11.578;2023-09-19T06:11:48;95803.16;;;19.31;60.42
58092;BME280;43896;48.178;11.578;2023-09-19T06:14:13;95795.56;;;19.35;60.36
58092;BME280;43896;48.178;11.578;2023-09-19T06:16:39;95792.00;;;19.41;59.96
58092;BME280;43896;48.178;11.578;2023-09-19T06:19:06;95797.00;;;19.30;60.57
58092;BME280;43896;48.178;11.578;2023-09-19T06:21:35;95799.63;;;19.37;60.28
58092;BME280;43896;48.178;11.578;2023-09-19T06:24:00;95808.47;;;19.38;60.49
58092;BME280;43896;48.178;11.578;2023-09-19T06:26:26;95799.22;;;19.40;60.46
58092;BME280;43896;48.178;11.578;2023-09-19T06:28:52;95806.72;;;19.18;60.98
58092;BME280;43896;48.178;11.578;2023-09-19T06:31:17;95800.38;;;19.19;60.82
58092;BME280;43896;48.178;11.578;2023-09-19T06:33:43;95802.75;;;19.34;60.69
58092;BME280;43896;48.178;11.578;2023-09-19T06:36:08;95807.91;;;19.29;60.93
58092;BME280;43896;48.178;11.578;2023-09-19T06:38:33;95803.25;;;19.11;60.56
58092;BME280;43896;48.178;11.578;2023-09-19T06:41:01;95815.16;;;19.15;60.75
58092;BME280;43896;48.178;11.578;2023-09-19T06:43:26;95815.53;;;19.57;59.81
58092;BME280;43896;48.178;11.578;2023-09-19T06:45:51;95816.19;;;19.84;58.81
58092;BME280;43896;48.178;11.578;2023-09-19T06:48:17;95824.78;;;19.55;59.48
58092;BME280;43896;48.178;11.578;2023-09-19T06:50:43;95824.66;;;19.75;59.10
58092;BME280;43896;48.178;11.578;2023-09-19T06:53:09;95821.63;;;19.64;59.10
58092;BME280;43896;48.178;11.578;2023-09-19T06:55:35;95836.56;;;20.04;58.40
58092;BME280;43896;48.178;11.578;2023-09-19T06:58:00;95825.84;;;19.47;60.48
58092;BME280;43896;48.178;11.578;2023-09-19T07:00:26;95818.72;;;20.04;58.59
58092;BME280;43896;48.178;11.578;2023-09-19T07:02:59;95816.59;;;20.32;57.52
58092;BME280;43896;48.178;11.578;2023-09-19T07:05:28;95831.34;;;20.59;57.79
58092;BME280;43896;48.178;11.578;2023-09-19T07:07:54;95833.78;;;20.61;56.81
58092;BME280;43896;48.178;11.578;2023-09-19T07:10:28;95836.34;;;20.31;58.26
58092;BME280;43896;48.178;11.578;2023-09-19T07:12:55;95837.41;;;20.04;58.10
58092;BME280;43896;48.178;11.578;2023-09-19T07:15:20;95835.75;;;20.03;58.49
58092;BME280;43896;48.178;11.578;2023-09-19T07:17:48;95842.34;;;20.01;58.82
58092;BME280;43896;48.178;11.578;2023-09-19T07:20:13;95849.19;;;19.90;58.81
58092;BME280;43896;48.178;11.578;2023-09-19T07:22:41;95851.06;;;19.90;59.34
58092;BME280;43896;48.178;11.578;2023-09-19T07:25:06;95858.72;;;19.79;59.32
58092;BME280;43896;48.178;11.578;2023-09-19T07:27:32;95860.13;;;19.82;59.12
58092;BME280;43896;48.178;11.578;2023-09-19T07:29:57;95859.34;;;20.07;58.27
58092;BME280;43896;48.178;11.578;2023-09-19T07:32:22;95871.88;;;20.31;57.54
58092;BME280;43896;48.178;11.578;2023-09-19T07:34:48;95857.50;;;20.07;58.60
58092;BME280;43896;48.178;11.578;2023-09-19T07:37:13;95846.69;;;19.95;58.24
58092;BME280;43896;48.178;11.578;2023-09-19T07:39:40;95853.44;;;20.23;58.52
58092;BME280;43896;48.178;11.578;2023-09-19T07:42:06;95853.34;;;20.36;59.01
58092;BME280;43896;48.178;11.578;2023-09-19T07:44:32;95853.28;;;20.18;59.02
58092;BME280;43896;48.178;11.578;2023-09-19T07:46:57;95852.66;;;20.22;59.12
58092;BME280;43896;48.178;11.578;2023-09-19T07:49:23;95864.97;;;20.23;59.48
58092;BME280;43896;48.178;11.578;2023-09-19T07:51:48;95852.19;;;20.00;59.26
58092;BME280;43896;48.178;11.578;2023-09-19T07:54:13;95858.00;;;20.22;59.68
58092;BME280;43896;48.178;11.578;2023-09-19T07:56:39;95853.16;;;20.56;58.47
58092;BME280;43896;48.178;11.578;2023-09-19T07:59:04;95863.69;;;20.51;59.83
58092;BME280;43896;48.178;11.578;2023-09-19T08:01:30;95860.66;;;20.91;57.25
58092;BME280;43896;48.178;11.578;2023-09-19T08:03:55;95857.97;;;20.91;57.58
58092;BME280;43896;48.178;11.578;2023-09-19T08:06:20;95859.69;;;20.60;57.67
58092;BME280;43896;48.178;11.578;2023-09-19T08:08:45;95856.00;;;20.61;58.25
58092;BME280;43896;48.178;11.578;2023-09-19T08:11:11;95852.88;;;20.65;58.66
58092;BME280;43896;48.178;11.578;2023-09-19T08:13:39;95856.22;;;20.60;58.68
58092;BME280;43896;48.178;11.578;2023-09-19T08:16:13;95868.53;;;20.61;58.89
58092;BME280;43896;48.178;11.578;2023-09-19T08:18:40;95873.03;;;20.67;59.01
58092;BME280;43896;48.178;11.578;2023-09-19T08:21:05;95864.88;;;20.81;58.07
58092;BME280;43896;48.178;11.578;2023-09-19T08:23:33;95866.66;;;20.68;58.16
58092;BME280;43896;48.178;11.578;2023-09-19T08:25:58;95870.06;;;20.50;59.31
58092;BME280;43896;48.178;11.578;2023-09-19T08:28:27;95871.13;;;21.11;57.93
58092;BME280;43896;48.178;11.578;2023-09-19T08:30:54;95874.84;;;21.47;57.19
58092;BME280;43896;48.178;11.578;2023-09-19T08:33:20;95866.72;;;21.96;54.42
58092;BME280;43896;48.178;11.578;2023-09-19T08:35:45;95869.75;;;22.30;54.17
58092;BME280;43896;48.178;11.578;2023-09-19T08:38:11;95854.94;;;22.63;52.88
58092;BME280;43896;48.178;11.578;2023-09-19T08:40:37;95865.44;;;22.76;52.10
58092;BME280;43896;48.178;11.578;2023-09-19T08:43:05;95870.31;;;22.79;51.96
58092;BME280;43896;48.178;11.578;2023-09-19T08:45:32;95861.19;;;23.04;51.56
58092;BME280;43896;48.178;11.578;2023-09-19T08:50:26;95857.28;;;23.35;50.33
58092;BME280;43896;48.178;11.578;2023-09-19T08:52:53;95865.50;;;23.57;50.57
58092;BME280;43896;48.178;11.578;2023-09-19T08:55:20;95863.81;;;23.39;49.91
58092;BME280;43896;48.178;11.578;2023-09-19T08:57:49;95872.78;;;23.45;49.76
58092;BME280;43896;48.178;11.578;2023-09-19T09:00:15;95869.03;;;23.46;49.39
58092;BME280;43896;48.178;11.578;2023-09-19T09:02:43;95865.94;;;23.66;49.47
58092;BME280;43896;48.178;11.578;2023-09-19T09:05:09;95872.41;;;23.01;49.57
58092;BME280;43896;48.178;11.578;2023-09-19T09:07:36;95873.25;;;22.54;50.84
58092;BME280;43896;48.178;11.578;2023-09-19T09:10:02;95875.31;;;22.28;51.49
58092;BME280;43896;48.178;11.578;2023-09-19T09:12:27;95874.59;;;22.21;52.27
58092;BME280;43896;48.178;11.578;2023-09-19T09:14:54;95877.88;;;22.94;50.33
58092;BME280;43896;48.178;11.578;2023-09-19T09:17:19;95886.97;;;23.17;50.76
58092;BME280;43896;48.178;11.578;2023-09-19T09:19:45;95885.22;;;23.23;49.18
58092;BME280;43896;48.178;11.578;2023-09-19T09:22:11;95880.81;;;23.57;47.79
58092;BME280;43896;48.178;11.578;2023-09-19T09:24:37;95873.50;;;23.98;46.91
58092;BME280;43896;48.178;11.578;2023-09-19T09:27:04;95870.03;;;24.31;46.26
58092;BME280;43896;48.178;11.578;2023-09-19T09:29:47;95870.94;;;23.74;47.86
58092;BME280;43896;48.178;11.578;2023-09-19T09:32:18;95867.66;;;24.18;47.11
58092;BME280;43896;48.178;11.578;2023-09-19T09:34:50;95867.59;;;24.13;46.63
58092;BME280;43896;48.178;11.578;2023-09-19T09:37:19;95871.16;;;24.36;46.01
58092;BME280;43896;48.178;11.578;2023-09-19T09:39:54;95872.69;;;23.69;46.80
58092;BME280;43896;48.178;11.578;2023-09-19T09:42:34;95883.72;;;23.84;47.52
58092;BME280;43896;48.178;11.578;2023-09-19T09:47:48;95879.03;;;24.54;45.01
58092;BME280;43896;48.178;11.578;2023-09-19T09:50:31;95878.13;;;23.57;46.35
58092;BME280;43896;48.178;11.578;2023-09-19T09:53:03;95889.19;;;23.08;46.94
58092;BME280;43896;48.178;11.578;2023-09-19T09:55:56;95881.72;;;23.63;45.62
58092;BME280;43896;48.178;11.578;2023-09-19T09:58:22;95882.44;;;22.46;48.28
58092;BME280;43896;48.178;11.578;2023-09-19T10:00:53;95876.28;;;22.58;48.03
58092;BME280;43896;48.178;11.578;2023-09-19T10:03:30;95880.13;;;21.96;49.16
58092;BME280;43896;48.178;11.578;2023-09-19T10:05:56;95887.53;;;23.19;47.24
58092;BME280;43896;48.178;11.578;2023-09-19T10:08:23;95886.31;;;24.08;45.16
58092;BME280;43896;48.178;11.578;2023-09-19T10:10:48;95881.19;;;24.40;43.69
58092;BME280;43896;48.178;11.578;2023-09-19T10:13:28;95874.66;;;24.53;44.14
58092;BME280;43896;48.178;11.578;2023-09-19T10:15:55;95886.19;;;24.65;42.71
58092;BME280;43896;48.178;11.578;2023-09-19T10:18:22;95880.31;;;24.68;41.34
58092;BME280;43896;48.178;11.578;2023-09-19T10:20:48;95888.63;;;24.50;42.72
58092;BME280;43896;48.178;11.578;2023-09-19T10:23:17;95877.47;;;24.58;42.01
58092;BME280;43896;48.178;11.578;2023-09-19T10:25:47;95886.59;;;24.57;42.41
58092;BME280;43896;48.178;11.578;2023-09-19T10:28:14;95873.94;;;25.14;41.70
58092;BME280;43896;48.178;11.578;2023-09-19T10:30:41;95871.72;;;25.27;41.19
58092;BME280;43896;48.178;11.578;2023-09-19T10:33:10;95875.03;;;24.96;41.41
58092;BME280;43896;48.178;11.578;2023-09-19T10:35:39;95880.47;;;24.11;43.24
58092;BME280;43896;48.178;11.578;2023-09-19T10:38:09;95890.81;;;24.19;43.41
58092;BME280;43896;48.178;11.578;2023-09-19T10:40:35;95885.16;;;24.04;44.86
58092;BME280;43896;48.178;11.578;2023-09-19T10:43:02;95881.47;;;24.56;42.58
58092;BME280;43896;48.178;11.578;2023-09-19T10:45:32;95889.03;;;24.76;42.58
58092;BME280;43896;48.178;11.578;2023-09-19T10:47:57;95895.94;;;24.88;41.82
58092;BME280;43896;48.178;11.578;2023-09-19T10:50:23;95887.47;;;25.19;41.25
58092;BME280;43896;48.178;11.578;2023-09-19T10:52:48;95888.38;;;25.07;41.48
58092;BME280;43896;48.178;11.578;2023-09-19T10:55:23;95887.69;;;25.83;40.57
58092;BME280;43896;48.178;11.578;2023-09-19T10:57:50;95888.38;;;26.23;39.89
58092;BME280;43896;48.178;11.578;2023-09-19T11:00:15;95883.50;;;25.93;40.47
58092;BME280;43896;48.178;11.578;2023-09-19T11:05:35;95885.25;;;26.36;38.74
58092;BME280;43896;48.178;11.578;2023-09-19T11:08:05;95878.66;;;26.54;38.27
58092;BME280;43896;48.178;11.578;2023-09-19T11:10:48;95887.81;;;26.53;38.78
58092;BME280;43896;48.178;11.578;2023-09-19T11:26:41;95874.00;;;25.19;40.07
58092;BME280;43896;48.178;11.578;2023-09-19T11:29:28;95880.03;;;24.53;40.14
58092;BME280;43896;48.178;11.578;2023-09-19T11:31:54;95877.00;;;25.00;40.15
58092;BME280;43896;48.178;11.578;2023-09-19T11:39:39;95875.53;;;25.54;37.74
58092;BME280;43896;48.178;11.578;2023-09-19T11:44:51;95863.72;;;26.74;37.47
58092;BME280;43896;48.178;11.578;2023-09-19T11:47:21;95876.47;;;26.84;36.87
58092;BME280;43896;48.178;11.578;2023-09-19T11:49:47;95871.28;;;26.12;36.05
58092;BME280;43896;48.178;11.578;2023-09-19T11:52:18;95876.56;;;25.75;36.93
58092;BME280;43896;48.178;11.578;2023-09-19T11:54:53;95872.59;;;24.94;37.73
58092;BME280;43896;48.178;11.578;2023-09-19T11:57:21;95874.69;;;24.36;38.92
58092;BME280;43896;48.178;11.578;2023-09-19T11:59:47;95882.47;;;23.75;40.63
58092;BME280;43896;48.178;11.578;2023-09-19T12:02:13;95876.53;;;24.36;40.38
58092;BME280;43896;48.178;11.578;2023-09-19T12:04:46;95875.41;;;24.48;41.65
58092;BME280;43896;48.178;11.578;2023-09-19T12:07:14;95877.84;;;25.67;38.36
58092;BME280;43896;48.178;11.578;2023-09-19T12:09:51;95877.13;;;25.50;38.81
58092;BME280;43896;48.178;11.578;2023-09-19T12:12:27;95870.00;;;25.21;39.26
58092;BME280;43896;48.178;11.578;2023-09-19T12:14:52;95874.41;;;25.27;38.93
58092;BME280;43896;48.178;11.578;2023-09-19T12:17:18;95871.00;;;24.93;39.65
58092;BME280;43896;48.178;11.578;2023-09-19T12:19:52;95865.88;;;24.41;40.08
58092;BME280;43896;48.178;11.578;2023-09-19T12:22:18;95863.75;;;23.92;41.60
58092;BME280;43896;48.178;11.578;2023-09-19T12:24:45;95866.91;;;23.48;43.63
58092;BME280;43896;48.178;11.578;2023-09-19T12:27:11;95861.22;;;24.70;41.27
58092;BME280;43896;48.178;11.578;2023-09-19T12:29:44;95864.56;;;24.09;42.67
58092;BME280;43896;48.178;11.578;2023-09-19T12:32:09;95860.25;;;24.76;40.31
58092;BME280;43896;48.178;11.578;2023-09-19T12:34:35;95862.53;;;24.50;38.90
58092;BME280;43896;48.178;11.578;2023-09-19T12:37:04;95858.63;;;24.07;40.48
58092;BME280;43896;48.178;11.578;2023-09-19T12:39:37;95862.22;;;24.47;40.30
58092;BME280;43896;48.178;11.578;2023-09-19T12:42:02;95867.16;;;25.28;38.33
58092;BME280;43896;48.178;11.578;2023-09-19T12:44:29;95863.09;;;24.52;40.31
58092;BME280;43896;48.178;11.578;2023-09-19T12:46:54;95862.53;;;24.00;41.73
58092;BME280;43896;48.178;11.578;2023-09-19T12:49:20;95862.75;;;23.98;41.21
58092;BME280;43896;48.178;11.578;2023-09-19T12:51:48;95872.06;;;22.97;44.35
58092;BME280;43896;48.178;11.578;2023-09-19T12:54:14;95868.31;;;22.98;46.33
58092;BME280;43896;48.178;11.578;2023-09-19T12:56:43;95862.78;;;23.29;46.04
58092;BME280;43896;48.178;11.578;2023-09-19T12:59:14;95865.84;;;22.26;49.30
58092;BME280;43896;48.178;11.578;2023-09-19T13:01:40;95872.06;;;22.38;49.56
58092;BME280;43896;48.178;11.578;2023-09-19T13:04:11;95866.72;;;22.62;49.19
58092;BME280;43896;48.178;11.578;2023-09-19T13:06:37;95864.19;;;22.01;51.49
58092;BME280;43896;48.178;11.578;2023-09-19T13:09:08;95856.69;;;22.45;51.53
58092;BME280;43896;48.178;11.578;2023-09-19T13:11:37;95858.56;;;23.33;48.96
58092;BME280;43896;48.178;11.578;2023-09-19T13:14:20;95854.41;;;24.62;45.90
58092;BME280;43896;48.178;11.578;2023-09-19T13:19:43;95848.78;;;25.25;42.23
58092;BME280;43896;48.178;11.578;2023-09-19T13:24:56;95844.63;;;25.89;42.13
58092;BME280;43896;48.178;11.578;2023-09-19T13:27:23;95837.66;;;26.15;41.55
58092;BME280;43896;48.178;11.578;2023-09-19T13:29:48;95844.34;;;26.45;41.44
58092;BME280;43896;48.178;11.578;2023-09-19T13:32:14;95836.03;;;26.51;40.71
58092;BME280;43896;48.178;11.578;2023-09-19T13:34:39;95834.78;;;26.32;41.12
58092;BME280;43896;48.178;11.578;2023-09-19T13:37:04;95829.97;;;26.34;41.10
58092;BME280;43896;48.178;11.578;2023-09-19T13:39:29;95827.41;;;26.54;41.12
58092;BME280;43896;48.178;11.578;2023-09-19T13:41:55;95835.16;;;26.83;40.80